sensor_id;sensor_type;location;lat;lon;timestamp;temperature;humidity
14016;DHT22;7083;48.854;9.158;2023-12-28T00:00:54;4.30;99.90
14016;DHT22;7083;48.854;9.158;2023-12-28T00:03:20;4.60;99.60
14016;DHT22;7083;48.854;9.158;2023-12-28T00:05:48;4.90;97.90
14016;DHT22;7083;48.854;9.158;2023-12-28T00:08:15;5.20;96.00
14016;DHT22;7083;48.854;9.158;2023-12-28T00:10:42;5.50;94.60
14016;DHT22;7083;48.854;9.158;2023-12-28T00:13:09;5.80;93.70
14016;DHT22;7083;48.854;9.158;2023-12-28T00:15:35;6.10;92.60
14016;DHT22;7083;48.854;9.158;2023-12-28T00:18:03;6.40;91.50
14016;DHT22;7083;48.854;9.158;2023-12-28T00:20:29;6.60;90.80
14016;DHT22;7083;48.854;9.158;2023-12-28T00:22:57;6.80;90.30
14016;DHT22;7083;48.854;9.158;2023-12-28T00:25:24;6.90;88.40
14016;DHT22;7083;48.854;9.158;2023-12-28T00:27:51;7.10;87.30
14016;DHT22;7083;48.854;9.158;2023-12-28T00:30:18;7.20;86.90
14016;DHT22;7083;48.854;9.158;2023-12-28T00:32:45;7.20;86.60
14016;DHT22;7083;48.854;9.158;2023-12-28T00:35:11;7.30;86.00
14016;DHT22;7083;48.854;9.158;2023-12-28T00:37:38;7.40;86.30
14016;DHT22;7083;48.854;9.158;2023-12-28T00:40:07;7.40;85.30
14016;DHT22;7083;48.854;9.158;2023-12-28T00:42:34;7.50;84.50
14016;DHT22;7083;48.854;9.158;2023-12-28T00:45:01;7.70;83.40
14016;DHT22;7083;48.854;9.158;2023-12-28T00:47:28;7.70;83.60
14016;DHT22;7083;48.854;9.158;2023-12-28T00:49:54;7.70;83.00
14016;DHT22;7083;48.854;9.158;2023-12-28T00:52:21;7.80;83.20
14016;DHT22;7083;48.854;9.158;2023-12-28T00:54:48;7.80;82.80
14016;DHT22;7083;48.854;9.158;2023-12-28T00:57:16;7.70;82.60
14016;DHT22;7083;48.854;9.158;2023-12-28T00:59:42;7.70;83.00
14016;DHT22;7083;48.854;9.158;2023-12-28T01:02:09;7.70;83.00
14016;DHT22;7083;48.854;9.158;2023-12-28T01:04:35;7.60;83.30
14016;DHT22;7083;48.854;9.158;2023-12-28T01:07:02;7.40;83.90
14016;DHT22;7083;48.854;9.158;2023-12-28T01:09:31;7.20;84.50
14016;DHT22;7083;48.854;9.158;2023-12-28T01:11:58;7.10;84.40
14016;DHT22;7083;48.854;9.158;2023-12-28T01:14:26;7.00;85.00
14016;DHT22;7083;48.854;9.158;2023-12-28T01:16:53;7.00;85.60
14016;DHT22;7083;48.854;9.158;2023-12-28T01:19:20;6.90;86.30
14016;DHT22;7083;48.854;9.158;2023-12-28T01:21:46;6.90;85.70
14016;DHT22;7083;48.854;9.158;2023-12-28T01:24:13;6.90;85.50
14016;DHT22;7083;48.854;9.158;2023-12-28T01:26:40;6.80;85.70
14016;DHT22;7083;48.854;9.158;2023-12-28T01:29:06;6.80;85.70
14016;DHT22;7083;48.854;9.158;2023-12-28T01:31:35;6.80;85.50
14016;DHT22;7083;48.854;9.158;2023-12-28T01:34:04;6.80;85.90
14016;DHT22;7083;48.854;9.158;2023-12-28T01:36:31;6.70;86.10
14016;DHT22;7083;48.854;9.158;2023-12-28T01:38:57;6.70;86.00
14016;DHT22;7083;48.854;9.158;2023-12-28T01:41:24;6.70;85.70
14016;DHT22;7083;48.854;9.158;2023-12-28T01:43:51;6.70;85.90
14016;DHT22;7083;48.854;9.158;2023-12-28T01:46:19;6.70;86.00
14016;DHT22;7083;48.854;9.158;2023-12-28T01:48:49;6.70;85.80
14016;DHT22;7083;48.854;9.158;2023-12-28T01:51:16;6.80;85.70
14016;DHT22;7083;48.854;9.158;2023-12-28T01:53:44;6.70;85.70
14016;DHT22;7083;48.854;9.158;2023-12-28T01:56:11;6.70;86.00
14016;DHT22;7083;48.854;9.158;2023-12-28T01:58:40;6.70;85.70
14016;DHT22;7083;48.854;9.158;2023-12-28T02:01:09;6.70;85.90
14016;DHT22;7083;48.854;9.158;2023-12-28T02:03:36;6.70;86.00
14016;DHT22;7083;48.854;9.158;2023-12-28T02:06:05;6.80;85.60
14016;DHT22;7083;48.854;9.158;2023-12-28T02:08:33;6.70;85.70
14016;DHT22;7083;48.854;9.158;2023-12-28T02:10:59;6.70;85.80
14016;DHT22;7083;48.854;9.158;2023-12-28T02:13:26;6.70;85.70
14016;DHT22;7083;48.854;9.158;2023-12-28T02:15:58;6.80;85.70
14016;DHT22;7083;48.854;9.158;2023-12-28T02:18:33;6.70;86.30
14016;DHT22;7083;48.854;9.158;2023-12-28T02:21:04;6.70;86.80
14016;DHT22;7083;48.854;9.158;2023-12-28T02:23:32;6.70;86.00
14016;DHT22;7083;48.854;9.158;2023-12-28T02:26:00;6.70;85.90
14016;DHT22;7083;48.854;9.158;2023-12-28T02:28:27;6.70;85.40
14016;DHT22;7083;48.854;9.158;2023-12-28T02:30:54;6.80;85.60
14016;DHT22;7083;48.854;9.158;2023-12-28T02:33:26;6.70;85.40
14016;DHT22;7083;48.854;9.158;2023-12-28T02:35:57;6.70;85.60
14016;DHT22;7083;48.854;9.158;2023-12-28T02:38:26;6.60;85.90
14016;DHT22;7083;48.854;9.158;2023-12-28T02:40:54;6.40;86.60
14016;DHT22;7083;48.854;9.158;2023-12-28T02:43:23;6.30;86.70
14016;DHT22;7083;48.854;9.158;2023-12-28T02:45:49;6.30;86.70
14016;DHT22;7083;48.854;9.158;2023-12-28T02:48:16;6.40;86.50
14016;DHT22;7083;48.854;9.158;2023-12-28T02:50:43;6.40;86.60
14016;DHT22;7083;48.854;9.158;2023-12-28T02:53:09;6.30;86.90
14016;DHT22;7083;48.854;9.158;2023-12-28T02:55:36;6.30;87.30
14016;DHT22;7083;48.854;9.158;2023-12-28T02:58:03;6.20;87.30
14016;DHT22;7083;48.854;9.158;2023-12-28T03:00:32;6.20;88.00
14016;DHT22;7083;48.854;9.158;2023-12-28T03:02:58;6.10;88.20
14016;DHT22;7083;48.854;9.158;2023-12-28T03:05:25;6.10;88.30
14016;DHT22;7083;48.854;9.158;2023-12-28T03:07:52;6.00;88.00
14016;DHT22;7083;48.854;9.158;2023-12-28T03:10:21;6.00;88.70
14016;DHT22;7083;48.854;9.158;2023-12-28T03:12:47;6.10;88.60
14016;DHT22;7083;48.854;9.158;2023-12-28T03:15:14;6.10;88.40
14016;DHT22;7083;48.854;9.158;2023-12-28T03:17:42;6.10;88.30
14016;DHT22;7083;48.854;9.158;2023-12-28T03:20:10;6.00;88.40
14016;DHT22;7083;48.854;9.158;2023-12-28T03:22:36;6.00;88.80
14016;DHT22;7083;48.854;9.158;2023-12-28T03:25:04;6.00;88.90
14016;DHT22;7083;48.854;9.158;2023-12-28T03:27:31;6.00;88.80
14016;DHT22;7083;48.854;9.158;2023-12-28T03:29:58;6.10;88.90
14016;DHT22;7083;48.854;9.158;2023-12-28T03:32:24;6.10;89.00
14016;DHT22;7083;48.854;9.158;2023-12-28T03:34:52;6.10;88.90
14016;DHT22;7083;48.854;9.158;2023-12-28T03:37:19;6.10;89.40
14016;DHT22;7083;48.854;9.158;2023-12-28T03:39:46;6.10;89.10
14016;DHT22;7083;48.854;9.158;2023-12-28T03:42:13;6.20;89.00
14016;DHT22;7083;48.854;9.158;2023-12-28T03:44:39;6.30;88.40
14016;DHT22;7083;48.854;9.158;2023-12-28T03:47:07;6.30;88.60
14016;DHT22;7083;48.854;9.158;2023-12-28T03:49:34;6.40;89.10
14016;DHT22;7083;48.854;9.158;2023-12-28T03:52:02;6.50;89.20
14016;DHT22;7083;48.854;9.158;2023-12-28T03:54:28;6.70;89.00
14016;DHT22;7083;48.854;9.158;2023-12-28T03:56:55;6.60;88.80
14016;DHT22;7083;48.854;9.158;2023-12-28T03:59:22;6.50;88.60
14016;DHT22;7083;48.854;9.158;2023-12-28T04:01:49;6.60;88.20
14016;DHT22;7083;48.854;9.158;2023-12-28T04:04:16;6.60;88.20
14016;DHT22;7083;48.854;9.158;2023-12-28T04:06:42;6.60;88.30
14016;DHT22;7083;48.854;9.158;2023-12-28T04:09:12;6.60;87.70
14016;DHT22;7083;48.854;9.158;2023-12-28T04:11:39;6.70;87.50
14016;DHT22;7083;48.854;9.158;2023-12-28T04:14:06;6.70;87.80
14016;DHT22;7083;48.854;9.158;2023-12-28T04:16:32;6.70;86.90
14016;DHT22;7083;48.854;9.158;2023-12-28T04:18:59;6.90;86.30
14016;DHT22;7083;48.854;9.158;2023-12-28T04:21:26;7.10;86.80
14016;DHT22;7083;48.854;9.158;2023-12-28T04:23:52;7.20;85.30
14016;DHT22;7083;48.854;9.158;2023-12-28T04:26:20;7.50;84.80
14016;DHT22;7083;48.854;9.158;2023-12-28T04:28:47;7.70;83.80
14016;DHT22;7083;48.854;9.158;2023-12-28T04:31:14;7.90;83.10
14016;DHT22;7083;48.854;9.158;2023-12-28T04:33:40;8.00;83.10
14016;DHT22;7083;48.854;9.158;2023-12-28T04:36:07;8.20;81.80
14016;DHT22;7083;48.854;9.158;2023-12-28T04:38:34;8.40;81.60
14016;DHT22;7083;48.854;9.158;2023-12-28T04:41:01;8.30;81.10
14016;DHT22;7083;48.854;9.158;2023-12-28T04:43:29;8.40;80.70
14016;DHT22;7083;48.854;9.158;2023-12-28T04:45:55;8.40;80.20
14016;DHT22;7083;48.854;9.158;2023-12-28T04:48:22;8.50;80.10
14016;DHT22;7083;48.854;9.158;2023-12-28T04:50:52;8.10;79.70
14016;DHT22;7083;48.854;9.158;2023-12-28T04:53:25;10.80;80.70
14016;DHT22;7083;48.854;9.158;2023-12-28T04:56:03;9.20;80.30
14016;DHT22;7083;48.854;9.158;2023-12-28T04:58:55;8.80;80.20
14016;DHT22;7083;48.854;9.158;2023-12-28T05:01:30;9.30;80.60
14016;DHT22;7083;48.854;9.158;2023-12-28T05:03:58;8.60;79.80
14016;DHT22;7083;48.854;9.158;2023-12-28T05:06:28;8.70;79.80
14016;DHT22;7083;48.854;9.158;2023-12-28T05:08:55;8.50;80.00
14016;DHT22;7083;48.854;9.158;2023-12-28T05:11:25;8.80;80.40
14016;DHT22;7083;48.854;9.158;2023-12-28T05:13:53;8.40;80.60
14016;DHT22;7083;48.854;9.158;2023-12-28T05:16:20;8.20;81.30
14016;DHT22;7083;48.854;9.158;2023-12-28T05:18:47;8.30;81.70
14016;DHT22;7083;48.854;9.158;2023-12-28T05:21:14;8.20;82.20
14016;DHT22;7083;48.854;9.158;2023-12-28T05:23:41;8.00;81.90
14016;DHT22;7083;48.854;9.158;2023-12-28T05:26:07;9.40;83.20
14016;DHT22;7083;48.854;9.158;2023-12-28T05:28:34;8.70;82.70
14016;DHT22;7083;48.854;9.158;2023-12-28T05:31:23;8.10;82.70
14016;DHT22;7083;48.854;9.158;2023-12-28T05:34:20;8.30;82.90
14016;DHT22;7083;48.854;9.158;2023-12-28T05:40:09;8.50;82.70
14016;DHT22;7083;48.854;9.158;2023-12-28T05:42:36;8.40;83.50
14016;DHT22;7083;48.854;9.158;2023-12-28T05:45:14;8.80;84.40
14016;DHT22;7083;48.854;9.158;2023-12-28T05:47:49;8.30;83.80
14016;DHT22;7083;48.854;9.158;2023-12-28T05:50:16;7.90;84.10
14016;DHT22;7083;48.854;9.158;2023-12-28T06:02:18;8.50;85.80
14016;DHT22;7083;48.854;9.158;2023-12-28T06:03:24;8.60;86.30
14016;DHT22;7083;48.854;9.158;2023-12-28T06:05:53;8.80;86.90
14016;DHT22;7083;48.854;9.158;2023-12-28T06:08:34;9.60;88.30
14016;DHT22;7083;48.854;9.158;2023-12-28T06:11:13;8.70;87.40
14016;DHT22;7083;48.854;9.158;2023-12-28T06:13:54;9.10;87.70
14016;DHT22;7083;48.854;9.158;2023-12-28T06:16:23;9.50;88.10
14016;DHT22;7083;48.854;9.158;2023-12-28T06:19:14;9.70;88.50
14016;DHT22;7083;48.854;9.158;2023-12-28T06:21:51;9.20;88.00
14016;DHT22;7083;48.854;9.158;2023-12-28T06:24:21;8.90;88.50
14016;DHT22;7083;48.854;9.158;2023-12-28T06:26:48;9.40;89.50
14016;DHT22;7083;48.854;9.158;2023-12-28T06:29:15;9.70;90.00
14016;DHT22;7083;48.854;9.158;2023-12-28T06:31:46;10.50;89.80
14016;DHT22;7083;48.854;9.158;2023-12-28T06:34:14;10.00;89.30
14016;DHT22;7083;48.854;9.158;2023-12-28T06:36:41;10.40;89.70
14016;DHT22;7083;48.854;9.158;2023-12-28T06:39:08;9.70;90.10
14016;DHT22;7083;48.854;9.158;2023-12-28T06:41:38;9.90;90.30
14016;DHT22;7083;48.854;9.158;2023-12-28T06:44:11;10.30;90.00
14016;DHT22;7083;48.854;9.158;2023-12-28T06:46:43;9.80;90.50
14016;DHT22;7083;48.854;9.158;2023-12-28T06:49:21;11.20;90.80
14016;DHT22;7083;48.854;9.158;2023-12-28T06:51:58;10.20;90.30
14016;DHT22;7083;48.854;9.158;2023-12-28T07:02:58;10.40;91.10
14016;DHT22;7083;48.854;9.158;2023-12-28T07:05:26;10.50;91.30
14016;DHT22;7083;48.854;9.158;2023-12-28T07:07:53;10.50;91.40
14016;DHT22;7083;48.854;9.158;2023-12-28T07:10:31;10.50;91.70
14016;DHT22;7083;48.854;9.158;2023-12-28T07:12:58;10.70;92.20
14016;DHT22;7083;48.854;9.158;2023-12-28T07:15:24;12.50;93.80
14016;DHT22;7083;48.854;9.158;2023-12-28T07:17:51;10.60;93.20
14016;DHT22;7083;48.854;9.158;2023-12-28T07:20:18;10.80;94.00
14016;DHT22;7083;48.854;9.158;2023-12-28T07:22:46;10.80;94.40
14016;DHT22;7083;48.854;9.158;2023-12-28T07:25:13;10.90;94.90
14016;DHT22;7083;48.854;9.158;2023-12-28T07:27:39;10.80;95.10
14016;DHT22;7083;48.854;9.158;2023-12-28T07:30:07;10.80;95.40
14016;DHT22;7083;48.854;9.158;2023-12-28T07:32:34;10.80;95.70
14016;DHT22;7083;48.854;9.158;2023-12-28T07:35:01;10.70;96.10
14016;DHT22;7083;48.854;9.158;2023-12-28T07:37:27;10.70;96.40
14016;DHT22;7083;48.854;9.158;2023-12-28T07:39:55;10.70;96.90
14016;DHT22;7083;48.854;9.158;2023-12-28T07:42:23;10.60;97.30
14016;DHT22;7083;48.854;9.158;2023-12-28T07:44:49;10.60;97.80
14016;DHT22;7083;48.854;9.158;2023-12-28T07:47:16;10.60;98.40
14016;DHT22;7083;48.854;9.158;2023-12-28T07:49:43;10.50;98.80
14016;DHT22;7083;48.854;9.158;2023-12-28T07:52:09;10.40;99.20
14016;DHT22;7083;48.854;9.158;2023-12-28T07:54:36;10.40;99.40
14016;DHT22;7083;48.854;9.158;2023-12-28T07:57:04;10.20;98.80
14016;DHT22;7083;48.854;9.158;2023-12-28T07:59:31;10.00;97.90
14016;DHT22;7083;48.854;9.158;2023-12-28T08:01:58;9.80;98.20
14016;DHT22;7083;48.854;9.158;2023-12-28T08:04:24;9.70;97.90
14016;DHT22;7083;48.854;9.158;2023-12-28T08:06:51;9.50;97.80
14016;DHT22;7083;48.854;9.158;2023-12-28T08:09:18;9.40;97.90
14016;DHT22;7083;48.854;9.158;2023-12-28T08:11:44;9.30;97.80
14016;DHT22;7083;48.854;9.158;2023-12-28T08:14:13;9.20;97.80
14016;DHT22;7083;48.854;9.158;2023-12-28T08:16:40;9.10;98.00
14016;DHT22;7083;48.854;9.158;2023-12-28T08:19:06;9.10;98.40
14016;DHT22;7083;48.854;9.158;2023-12-28T08:21:33;9.00;98.60
14016;DHT22;7083;48.854;9.158;2023-12-28T08:24:00;9.00;98.80
14016;DHT22;7083;48.854;9.158;2023-12-28T08:26:26;9.00;98.90
14016;DHT22;7083;48.854;9.158;2023-12-28T08:28:53;8.90;99.30
14016;DHT22;7083;48.854;9.158;2023-12-28T08:31:21;8.90;99.50
14016;DHT22;7083;48.854;9.158;2023-12-28T08:33:48;8.80;99.90
14016;DHT22;7083;48.854;9.158;2023-12-28T08:36:15;8.80;99.90
14016;DHT22;7083;48.854;9.158;2023-12-28T08:38:42;8.80;99.90
14016;DHT22;7083;48.854;9.158;2023-12-28T08:41:17;8.70;99.90
14016;DHT22;7083;48.854;9.158;2023-12-28T08:43:44;8.70;99.90
14016;DHT22;7083;48.854;9.158;2023-12-28T08:46:11;8.70;99.90
14016;DHT22;7083;48.854;9.158;2023-12-28T08:48:39;8.60;99.90
14016;DHT22;7083;48.854;9.158;2023-12-28T08:51:06;8.60;99.90
14016;DHT22;7083;48.854;9.158;2023-12-28T08:53:32;8.60;99.90
14016;DHT22;7083;48.854;9.158;2023-12-28T08:55:59;8.60;99.90
14016;DHT22;7083;48.854;9.158;2023-12-28T08:58:26;8.60;99.90
14016;DHT22;7083;48.854;9.158;2023-12-28T09:00:52;8.60;99.90
14016;DHT22;7083;48.854;9.158;2023-12-28T09:03:19;8.70;99.90
14016;DHT22;7083;48.854;9.158;2023-12-28T09:05:47;8.70;99.90
14016;DHT22;7083;48.854;9.158;2023-12-28T09:08:15;8.70;99.90
14016;DHT22;7083;48.854;9.158;2023-12-28T09:10:42;8.70;99.90
14016;DHT22;7083;48.854;9.158;2023-12-28T09:13:14;8.70;99.90
14016;DHT22;7083;48.854;9.158;2023-12-28T09:15:42;8.70;99.90
14016;DHT22;7083;48.854;9.158;2023-12-28T09:18:09;8.70;99.90
14016;DHT22;7083;48.854;9.158;2023-12-28T09:20:35;8.60;99.90
14016;DHT22;7083;48.854;9.158;2023-12-28T09:23:03;8.60;99.90
14016;DHT22;7083;48.854;9.158;2023-12-28T09:25:31;8.60;99.90
14016;DHT22;7083;48.854;9.158;2023-12-28T09:27:58;8.60;99.90
14016;DHT22;7083;48.854;9.158;2023-12-28T09:30:25;8.70;99.90
14016;DHT22;7083;48.854;9.158;2023-12-28T09:32:51;8.70;99.90
14016;DHT22;7083;48.854;9.158;2023-12-28T09:35:18;8.80;99.90
14016;DHT22;7083;48.854;9.158;2023-12-28T09:37:45;8.80;99.90
14016;DHT22;7083;48.854;9.158;2023-12-28T09:40:14;8.90;99.90
14016;DHT22;7083;48.854;9.158;2023-12-28T09:42:48;9.00;99.90
14016;DHT22;7083;48.854;9.158;2023-12-28T09:45:15;9.10;99.90
14016;DHT22;7083;48.854;9.158;2023-12-28T09:47:42;9.20;99.90
14016;DHT22;7083;48.854;9.158;2023-12-28T09:50:12;9.20;99.90
14016;DHT22;7083;48.854;9.158;2023-12-28T09:52:39;9.30;99.90
14016;DHT22;7083;48.854;9.158;2023-12-28T09:55:06;9.30;99.90
14016;DHT22;7083;48.854;9.158;2023-12-28T09:57:35;9.40;99.90
14016;DHT22;7083;48.854;9.158;2023-12-28T10:00:02;9.40;99.90
14016;DHT22;7083;48.854;9.158;2023-12-28T10:02:32;9.50;99.90
14016;DHT22;7083;48.854;9.158;2023-12-28T10:04:59;9.60;99.90
14016;DHT22;7083;48.854;9.158;2023-12-28T10:07:26;9.70;99.90
14016;DHT22;7083;48.854;9.158;2023-12-28T10:09:53;9.90;99.90
14016;DHT22;7083;48.854;9.158;2023-12-28T10:12:19;10.00;99.90
14016;DHT22;7083;48.854;9.158;2023-12-28T10:14:50;10.10;99.90
14016;DHT22;7083;48.854;9.158;2023-12-28T10:17:17;10.20;99.90
14016;DHT22;7083;48.854;9.158;2023-12-28T10:19:43;10.20;99.90
14016;DHT22;7083;48.854;9.158;2023-12-28T10:22:13;10.30;99.90
14016;DHT22;7083;48.854;9.158;2023-12-28T10:24:42;10.40;99.90
14016;DHT22;7083;48.854;9.158;2023-12-28T10:27:09;10.40;99.90
14016;DHT22;7083;48.854;9.158;2023-12-28T10:29:36;10.40;99.90
14016;DHT22;7083;48.854;9.158;2023-12-28T10:32:04;10.40;99.90
14016;DHT22;7083;48.854;9.158;2023-12-28T10:34:31;10.50;99.90
14016;DHT22;7083;48.854;9.158;2023-12-28T10:36:59;10.40;99.90
14016;DHT22;7083;48.854;9.158;2023-12-28T10:39:28;10.40;99.90
14016;DHT22;7083;48.854;9.158;2023-12-28T10:42:00;10.40;99.90
14016;DHT22;7083;48.854;9.158;2023-12-28T10:44:32;10.50;99.90
14016;DHT22;7083;48.854;9.158;2023-12-28T10:47:03;10.50;99.90
14016;DHT22;7083;48.854;9.158;2023-12-28T10:49:34;10.60;99.90
14016;DHT22;7083;48.854;9.158;2023-12-28T10:52:03;10.60;99.90
14016;DHT22;7083;48.854;9.158;2023-12-28T10:54:40;10.70;99.90
14016;DHT22;7083;48.854;9.158;2023-12-28T10:57:11;10.80;99.90
14016;DHT22;7083;48.854;9.158;2023-12-28T10:59:48;10.90;99.90
14016;DHT22;7083;48.854;9.158;2023-12-28T11:02:21;11.00;99.90
14016;DHT22;7083;48.854;9.158;2023-12-28T11:04:52;11.10;99.90
14016;DHT22;7083;48.854;9.158;2023-12-28T11:07:21;11.30;99.90
14016;DHT22;7083;48.854;9.158;2023-12-28T11:09:48;11.40;99.90
14016;DHT22;7083;48.854;9.158;2023-12-28T11:12:16;11.50;99.90
14016;DHT22;7083;48.854;9.158;2023-12-28T11:14:45;11.80;99.90
14016;DHT22;7083;48.854;9.158;2023-12-28T11:17:13;11.60;99.80
14016;DHT22;7083;48.854;9.158;2023-12-28T11:19:43;11.60;99.70
14016;DHT22;7083;48.854;9.158;2023-12-28T11:22:10;11.60;99.50
14016;DHT22;7083;48.854;9.158;2023-12-28T11:24:37;11.60;99.30
14016;DHT22;7083;48.854;9.158;2023-12-28T11:27:04;11.60;99.30
14016;DHT22;7083;48.854;9.158;2023-12-28T11:29:32;11.60;99.30
14016;DHT22;7083;48.854;9.158;2023-12-28T11:31:59;11.60;99.10
14016;DHT22;7083;48.854;9.158;2023-12-28T11:34:28;11.60;98.90
14016;DHT22;7083;48.854;9.158;2023-12-28T11:36:57;11.50;98.90
14016;DHT22;7083;48.854;9.158;2023-12-28T11:39:30;11.50;99.00
14016;DHT22;7083;48.854;9.158;2023-12-28T11:42:02;11.50;99.10
14016;DHT22;7083;48.854;9.158;2023-12-28T11:44:29;11.50;98.90
14016;DHT22;7083;48.854;9.158;2023-12-28T11:46:56;11.50;99.00
14016;DHT22;7083;48.854;9.158;2023-12-28T11:49:25;11.50;98.80
14016;DHT22;7083;48.854;9.158;2023-12-28T11:51:57;11.60;98.80
14016;DHT22;7083;48.854;9.158;2023-12-28T11:54:25;11.60;98.50
14016;DHT22;7083;48.854;9.158;2023-12-28T11:56:52;11.60;98.30
14016;DHT22;7083;48.854;9.158;2023-12-28T11:59:19;11.70;97.90
14016;DHT22;7083;48.854;9.158;2023-12-28T12:01:49;11.70;97.90
14016;DHT22;7083;48.854;9.158;2023-12-28T12:04:16;11.70;98.00
14016;DHT22;7083;48.854;9.158;2023-12-28T12:06:44;11.80;98.10
14016;DHT22;7083;48.854;9.158;2023-12-28T12:09:16;11.80;98.10
14016;DHT22;7083;48.854;9.158;2023-12-28T12:11:43;12.00;98.30
14016;DHT22;7083;48.854;9.158;2023-12-28T12:14:21;12.90;98.70
14016;DHT22;7083;48.854;9.158;2023-12-28T12:16:52;11.90;97.90
14016;DHT22;7083;48.854;9.158;2023-12-28T12:19:20;11.90;97.90
14016;DHT22;7083;48.854;9.158;2023-12-28T12:21:48;11.90;97.90
14016;DHT22;7083;48.854;9.158;2023-12-28T12:24:17;11.90;97.70
14016;DHT22;7083;48.854;9.158;2023-12-28T12:26:45;11.90;97.80
14016;DHT22;7083;48.854;9.158;2023-12-28T12:29:11;12.00;98.50
14016;DHT22;7083;48.854;9.158;2023-12-28T12:31:39;11.90;98.60
14016;DHT22;7083;48.854;9.158;2023-12-28T12:34:07;11.90;98.60
14016;DHT22;7083;48.854;9.158;2023-12-28T12:36:34;11.90;98.50
14016;DHT22;7083;48.854;9.158;2023-12-28T12:39:01;11.80;98.30
14016;DHT22;7083;48.854;9.158;2023-12-28T12:41:30;11.70;98.30
14016;DHT22;7083;48.854;9.158;2023-12-28T12:43:57;11.60;98.50
14016;DHT22;7083;48.854;9.158;2023-12-28T12:46:25;11.60;99.00
14016;DHT22;7083;48.854;9.158;2023-12-28T12:48:55;11.50;99.60
14016;DHT22;7083;48.854;9.158;2023-12-28T12:51:22;11.50;99.90
14016;DHT22;7083;48.854;9.158;2023-12-28T12:53:49;11.50;99.90
14016;DHT22;7083;48.854;9.158;2023-12-28T12:56:16;11.50;99.90
14016;DHT22;7083;48.854;9.158;2023-12-28T12:58:45;11.50;99.90
14016;DHT22;7083;48.854;9.158;2023-12-28T13:01:12;11.40;99.90
14016;DHT22;7083;48.854;9.158;2023-12-28T13:03:40;11.40;99.90
14016;DHT22;7083;48.854;9.158;2023-12-28T13:06:07;11.40;99.90
14016;DHT22;7083;48.854;9.158;2023-12-28T13:08:33;11.30;99.90
14016;DHT22;7083;48.854;9.158;2023-12-28T13:11:00;11.40;99.90
14016;DHT22;7083;48.854;9.158;2023-12-28T13:13:27;11.40;99.90
14016;DHT22;7083;48.854;9.158;2023-12-28T13:15:55;11.90;99.90
14016;DHT22;7083;48.854;9.158;2023-12-28T13:18:22;11.50;99.90
14016;DHT22;7083;48.854;9.158;2023-12-28T13:20:48;11.60;99.90
14016;DHT22;7083;48.854;9.158;2023-12-28T13:23:15;11.60;99.90
14016;DHT22;7083;48.854;9.158;2023-12-28T13:25:42;11.60;99.90
14016;DHT22;7083;48.854;9.158;2023-12-28T13:28:09;11.90;99.90
14016;DHT22;7083;48.854;9.158;2023-12-28T13:30:37;11.50;99.90
14016;DHT22;7083;48.854;9.158;2023-12-28T13:33:06;11.40;99.90
14016;DHT22;7083;48.854;9.158;2023-12-28T13:35:32;11.40;99.90
14016;DHT22;7083;48.854;9.158;2023-12-28T13:38:00;11.40;99.90
14016;DHT22;7083;48.854;9.158;2023-12-28T13:40:27;11.30;99.90
14016;DHT22;7083;48.854;9.158;2023-12-28T13:42:54;11.20;99.90
14016;DHT22;7083;48.854;9.158;2023-12-28T13:45:20;11.20;99.90
14016;DHT22;7083;48.854;9.158;2023-12-28T13:47:47;11.20;99.90
14016;DHT22;7083;48.854;9.158;2023-12-28T13:50:15;11.10;99.90
14016;DHT22;7083;48.854;9.158;2023-12-28T13:52:42;11.10;99.90
14016;DHT22;7083;48.854;9.158;2023-12-28T13:55:09;11.10;99.90
14016;DHT22;7083;48.854;9.158;2023-12-28T13:57:37;11.10;99.90
14016;DHT22;7083;48.854;9.158;2023-12-28T14:00:04;11.10;99.90
14016;DHT22;7083;48.854;9.158;2023-12-28T14:02:31;11.00;99.90
14016;DHT22;7083;48.854;9.158;2023-12-28T14:04:58;11.00;99.90
14016;DHT22;7083;48.854;9.158;2023-12-28T14:07:26;11.00;99.90
14016;DHT22;7083;48.854;9.158;2023-12-28T14:09:53;11.00;99.90
14016;DHT22;7083;48.854;9.158;2023-12-28T14:12:20;10.90;99.90
14016;DHT22;7083;48.854;9.158;2023-12-28T14:14:47;10.80;99.90
14016;DHT22;7083;48.854;9.158;2023-12-28T14:17:13;10.80;99.90
14016;DHT22;7083;48.854;9.158;2023-12-28T14:19:40;10.70;99.90
14016;DHT22;7083;48.854;9.158;2023-12-28T14:22:08;10.70;99.90
14016;DHT22;7083;48.854;9.158;2023-12-28T14:24:36;10.70;99.90
14016;DHT22;7083;48.854;9.158;2023-12-28T14:27:04;10.50;99.90
14016;DHT22;7083;48.854;9.158;2023-12-28T14:29:31;10.50;99.90
14016;DHT22;7083;48.854;9.158;2023-12-28T14:31:58;10.50;99.90
14016;DHT22;7083;48.854;9.158;2023-12-28T14:34:25;10.40;99.90
14016;DHT22;7083;48.854;9.158;2023-12-28T14:36:53;10.40;99.90
14016;DHT22;7083;48.854;9.158;2023-12-28T14:39:19;10.40;99.90
14016;DHT22;7083;48.854;9.158;2023-12-28T14:41:47;10.40;99.90
14016;DHT22;7083;48.854;9.158;2023-12-28T14:44:14;10.40;99.90
14016;DHT22;7083;48.854;9.158;2023-12-28T14:46:41;10.40;99.90
14016;DHT22;7083;48.854;9.158;2023-12-28T14:49:08;10.40;99.90
14016;DHT22;7083;48.854;9.158;2023-12-28T14:51:34;10.40;99.90
14016;DHT22;7083;48.854;9.158;2023-12-28T14:54:01;10.40;99.90
14016;DHT22;7083;48.854;9.158;2023-12-28T14:56:28;10.40;99.90
14016;DHT22;7083;48.854;9.158;2023-12-28T14:58:56;10.40;99.90
14016;DHT22;7083;48.854;9.158;2023-12-28T15:01:23;10.40;99.90
14016;DHT22;7083;48.854;9.158;2023-12-28T15:03:49;10.40;99.90
14016;DHT22;7083;48.854;9.158;2023-12-28T15:06:16;10.40;99.90
14016;DHT22;7083;48.854;9.158;2023-12-28T15:08:43;10.40;99.90
14016;DHT22;7083;48.854;9.158;2023-12-28T15:11:10;10.40;99.90
14016;DHT22;7083;48.854;9.158;2023-12-28T15:13:37;10.30;99.90
14016;DHT22;7083;48.854;9.158;2023-12-28T15:16:07;10.30;99.90
14016;DHT22;7083;48.854;9.158;2023-12-28T15:18:35;10.30;99.90
14016;DHT22;7083;48.854;9.158;2023-12-28T15:21:02;10.30;99.90
14016;DHT22;7083;48.854;9.158;2023-12-28T15:23:29;10.20;99.90
14016;DHT22;7083;48.854;9.158;2023-12-28T15:26:01;10.30;99.90
14016;DHT22;7083;48.854;9.158;2023-12-28T15:28:28;10.30;99.90
14016;DHT22;7083;48.854;9.158;2023-12-28T15:30:55;10.70;99.90
14016;DHT22;7083;48.854;9.158;2023-12-28T15:33:25;10.40;99.90
14016;DHT22;7083;48.854;9.158;2023-12-28T15:35:51;11.20;99.90
14016;DHT22;7083;48.854;9.158;2023-12-28T15:38:18;10.40;99.90
14016;DHT22;7083;48.854;9.158;2023-12-28T15:40:45;11.00;99.90
14016;DHT22;7083;48.854;9.158;2023-12-28T15:43:14;10.40;99.90
14016;DHT22;7083;48.854;9.158;2023-12-28T15:45:41;10.50;99.90
14016;DHT22;7083;48.854;9.158;2023-12-28T15:48:08;10.30;99.90
14016;DHT22;7083;48.854;9.158;2023-12-28T15:50:36;10.30;99.90
14016;DHT22;7083;48.854;9.158;2023-12-28T15:53:05;11.80;99.90
14016;DHT22;7083;48.854;9.158;2023-12-28T15:55:32;10.30;99.90
14016;DHT22;7083;48.854;9.158;2023-12-28T15:57:59;10.30;99.90
14016;DHT22;7083;48.854;9.158;2023-12-28T16:00:26;10.30;99.90
14016;DHT22;7083;48.854;9.158;2023-12-28T16:02:53;12.10;99.90
14016;DHT22;7083;48.854;9.158;2023-12-28T16:05:20;11.40;99.90
14016;DHT22;7083;48.854;9.158;2023-12-28T16:07:48;10.20;99.90
14016;DHT22;7083;48.854;9.158;2023-12-28T16:10:15;10.10;99.90
14016;DHT22;7083;48.854;9.158;2023-12-28T16:12:41;10.10;99.90
14016;DHT22;7083;48.854;9.158;2023-12-28T16:15:09;10.10;99.90
14016;DHT22;7083;48.854;9.158;2023-12-28T16:17:36;10.00;99.90
14016;DHT22;7083;48.854;9.158;2023-12-28T16:20:04;9.90;99.90